Terminal Aerodrome Forecast
Issued by NWS Charleston, WV

Current Version | Previous Version | Graphics & Text | Print | Product List | Glossary On
Versions: 1 2 3 4 5 6 7 8 9 10 11 12 13 14 15 16 17 18 19 20 21 22 23
000
FTUS41 KRLX 261727
TAFCRW
TAF
KCRW 261727Z 2618/2718 29010G18KT P6SM SCT060
     FM262200 29007KT P6SM FEW060
     FM270600 34006KT P6SM BKN060
     FM271500 28008KT P6SM BKN050=

USA.gov is the U.S. government's official web portal to all federal, state and local government web resources and services.